Time;durP1;ratioP1;P1;durP2;ratioP2;P2;SDS_P1;SDS_P2;PMS_P1;PMS_P2;Temp;Humidity;BMP_temperature;BMP_pressure;BME280_temperature;BME280_humidity;BME280_pressure;Samples;Min_cycle;Max_cycle;Signal;HPM_P1;HPM_P2
2021/01/09 00:00:49;;;;;;;12.10;7.83;;;1.40;97.50;;;;;;5067689;28;20074;-78
2021/01/09 00:03:16;;;;;;;16.10;10.13;;;1.40;97.50;;;;;;5051344;28;20036;-78
2021/01/09 00:05:44;;;;;;;16.87;9.53;;;1.30;97.60;;;;;;5066847;28;20039;-78
2021/01/09 00:08:10;;;;;;;13.40;9.40;;;1.30;97.60;;;;;;5051608;28;20031;-78
2021/01/09 00:10:37;;;;;;;14.30;8.97;;;1.30;97.60;;;;;;5084263;28;20044;-78
2021/01/09 00:13:04;;;;;;;20.50;12.97;;;1.30;97.70;;;;;;5084640;28;20040;-78
2021/01/09 00:15:30;;;;;;;18.87;12.37;;;1.20;97.70;;;;;;5066306;28;20056;-78
2021/01/09 00:17:56;;;;;;;16.53;10.50;;;1.20;97.70;;;;;;5044708;28;20051;-78
2021/01/09 00:20:23;;;;;;;20.33;11.63;;;1.30;97.80;;;;;;5049391;28;20051;-78
2021/01/09 00:22:50;;;;;;;26.30;13.07;;;1.30;97.70;;;;;;5084746;28;20039;-78
2021/01/09 00:25:17;;;;;;;22.27;12.00;;;1.20;97.70;;;;;;5052654;28;20039;-78
2021/01/09 00:27:45;;;;;;;28.33;13.63;;;1.20;97.70;;;;;;5087364;28;20050;-78
2021/01/09 00:30:12;;;;;;;22.07;12.03;;;1.10;97.60;;;;;;5069513;28;20031;-78
2021/01/09 00:32:39;;;;;;;24.10;12.63;;;1.10;97.60;;;;;;5072535;28;20065;-78
2021/01/09 00:35:07;;;;;;;21.53;11.30;;;1.00;97.90;;;;;;5045311;28;20044;-78
2021/01/09 00:37:34;;;;;;;17.67;9.90;;;0.90;97.70;;;;;;5087919;28;20047;-78
2021/01/09 00:40:00;;;;;;;18.53;9.40;;;0.90;97.70;;;;;;5068587;28;20028;-78
2021/01/09 00:42:27;;;;;;;18.63;10.03;;;0.80;97.70;;;;;;5040559;28;20036;-78
2021/01/09 00:44:53;;;;;;;24.00;11.43;;;0.80;97.70;;;;;;5056626;28;20043;-77
2021/01/09 00:47:20;;;;;;;18.23;9.90;;;0.70;97.80;;;;;;5088799;28;20051;-77
2021/01/09 00:49:46;;;;;;;18.60;9.37;;;0.70;97.80;;;;;;5069620;28;20043;-77
2021/01/09 00:52:13;;;;;;;14.70;8.27;;;0.70;97.80;;;;;;5072189;28;20035;-77
2021/01/09 00:54:39;;;;;;;21.87;10.80;;;0.70;97.90;;;;;;5055254;28;20047;-77
2021/01/09 00:57:06;;;;;;;15.37;9.37;;;0.70;97.90;;;;;;5070193;28;20047;-77
2021/01/09 00:59:32;;;;;;;17.17;9.57;;;0.70;97.90;;;;;;5069394;28;20036;-78
2021/01/09 01:01:59;;;;;;;21.33;11.27;;;0.70;97.90;;;;;;5088343;28;20036;-77
2021/01/09 01:04:25;;;;;;;18.27;11.07;;;0.60;97.80;;;;;;5072265;28;20043;-77
2021/01/09 01:06:52;;;;;;;17.63;10.23;;;0.60;97.90;;;;;;5105609;28;20055;-77
2021/01/09 01:09:18;;;;;;;22.83;11.27;;;0.60;97.90;;;;;;5053950;28;20046;-77
2021/01/09 01:11:46;;;;;;;18.93;10.47;;;0.60;97.90;;;;;;5069126;28;20059;-77
2021/01/09 01:14:12;;;;;;;24.20;12.67;;;0.60;97.90;;;;;;5105670;28;20036;-78
2021/01/09 01:16:43;;;;;;;18.23;11.13;;;0.50;97.90;;;;;;5072022;28;20074;-78
2021/01/09 01:19:13;;;;;;;32.80;15.37;;;0.50;97.90;;;;;;5071524;28;20051;-78
2021/01/09 01:21:39;;;;;;;22.23;12.60;;;0.50;97.90;;;;;;5070450;28;20040;-78
2021/01/09 01:24:07;;;;;;;26.63;13.60;;;0.50;97.90;;;;;;5105864;28;20144;-78
2021/01/09 01:26:34;;;;;;;21.40;10.93;;;0.50;97.90;;;;;;5055292;28;20509;-77
2021/01/09 01:29:03;;;;;;;41.07;15.27;;;0.50;97.90;;;;;;5039322;28;20619;-78
2021/01/09 01:31:30;;;;;;;20.43;10.27;;;0.50;97.90;;;;;;5087791;28;20486;-77
2021/01/09 01:33:56;;;;;;;41.00;14.83;;;0.40;97.90;;;;;;5088929;28;20043;-78
2021/01/09 01:36:23;;;;;;;34.87;15.97;;;0.40;97.90;;;;;;5054093;28;20036;-78
2021/01/09 01:38:49;;;;;;;25.73;12.10;;;0.40;98.00;;;;;;5069741;28;20040;-78
2021/01/09 01:41:16;;;;;;;18.37;10.93;;;0.40;97.90;;;;;;5070026;28;20043;-78
2021/01/09 01:43:43;;;;;;;20.53;11.90;;;0.40;97.90;;;;;;5068990;28;20402;-77
2021/01/09 01:46:10;;;;;;;27.13;11.20;;;0.40;97.90;;;;;;5087954;28;20611;-77
2021/01/09 01:48:38;;;;;;;14.00;8.70;;;0.40;98.10;;;;;;5087735;28;20046;-78
2021/01/09 01:51:05;;;;;;;20.57;11.17;;;0.40;97.90;;;;;;5086630;28;20407;-78
2021/01/09 01:53:32;;;;;;;36.93;12.57;;;0.30;97.80;;;;;;5087193;28;20044;-78
2021/01/09 01:55:59;;;;;;;18.47;11.07;;;0.30;97.80;;;;;;5070632;28;20268;-77
2021/01/09 01:58:25;;;;;;;18.93;10.97;;;0.30;97.80;;;;;;5068224;28;20387;-78
2021/01/09 02:00:52;;;;;;;19.53;12.63;;;0.30;97.80;;;;;;5085110;28;20043;-77
2021/01/09 02:03:20;;;;;;;16.13;9.93;;;0.30;97.70;;;;;;5069610;28;20048;-77
2021/01/09 02:05:59;;;;;;;22.03;13.50;;;0.30;97.70;;;;;;5068878;28;20384;-78
2021/01/09 02:08:40;;;;;;;16.13;8.90;;;0.30;97.70;;;;;;5086851;28;20096;-78
2021/01/09 02:11:16;;;;;;;15.87;9.67;;;0.30;97.70;;;;;;5069258;28;20482;-78
2021/01/09 02:13:59;;;;;;;26.63;14.53;;;0.30;97.70;;;;;;5103717;28;20039;-78
2021/01/09 02:16:26;;;;;;;14.15;9.43;;;0.30;97.70;;;;;;5117779;27;20042;-77
2021/01/09 02:18:54;;;;;;;14.67;9.27;;;0.20;97.70;;;;;;5040025;27;20042;-77
2021/01/09 02:21:40;;;;;;;19.37;12.10;;;0.20;97.70;;;;;;5089650;27;20054;-77
2021/01/09 02:24:17;;;;;;;18.23;10.07;;;0.20;97.70;;;;;;5089823;27;20379;-78
2021/01/09 02:26:48;;;;;;;19.43;9.80;;;0.10;97.70;;;;;;5090444;27;20050;-77
2021/01/09 02:29:15;;;;;;;40.87;12.97;;;0.20;97.80;;;;;;5040652;27;20035;-77
2021/01/09 02:32:04;;;;;;;22.77;11.23;;;0.20;97.80;;;;;;5124047;27;20060;-78
2021/01/09 02:34:41;;;;;;;40.57;13.70;;;0.20;97.80;;;;;;5092350;27;20050;-78
2021/01/09 02:37:09;;;;;;;39.33;12.13;;;0.20;97.80;;;;;;5123948;27;20062;-78
2021/01/09 02:39:36;;;;;;;43.47;13.43;;;0.20;97.80;;;;;;5086559;27;20047;-77
2021/01/09 02:42:03;;;;;;;14.60;9.03;;;0.20;97.80;;;;;;5088107;27;20061;-78
2021/01/09 02:44:31;;;;;;;83.53;21.27;;;0.20;97.80;;;;;;5089125;27;20046;-78
2021/01/09 02:46:58;;;;;;;31.10;11.87;;;0.20;97.80;;;;;;5074358;27;20401;-78
2021/01/09 02:49:25;;;;;;;50.07;15.80;;;0.20;97.90;;;;;;5071812;27;20039;-78
2021/01/09 02:51:52;;;;;;;18.87;9.70;;;0.20;98.10;;;;;;5072618;27;20055;-78
2021/01/09 02:54:18;;;;;;;56.07;14.83;;;0.10;97.90;;;;;;5058969;27;20494;-78
2021/01/09 02:56:45;;;;;;;77.40;21.90;;;0.10;98.00;;;;;;5073311;27;20035;-78
2021/01/09 02:59:11;;;;;;;20.37;10.20;;;0.10;98.00;;;;;;5086422;27;20047;-78
2021/01/09 03:01:38;;;;;;;32.43;11.73;;;0.00;98.00;;;;;;5086486;27;20031;-78
2021/01/09 03:04:04;;;;;;;20.90;9.20;;;0.10;98.10;;;;;;5107809;27;20050;-77
2021/01/09 03:06:31;;;;;;;34.77;13.87;;;0.00;98.10;;;;;;5076517;27;20035;-77
2021/01/09 03:08:57;;;;;;;27.77;13.60;;;0.00;98.10;;;;;;5072888;27;20035;-77
2021/01/09 03:11:24;;;;;;;16.97;10.00;;;0.00;98.10;;;;;;5088497;27;20042;-77
2021/01/09 03:13:51;;;;;;;38.67;13.50;;;0.00;98.20;;;;;;5092715;27;20066;-77
2021/01/09 03:16:17;;;;;;;54.03;17.00;;;0.00;98.20;;;;;;5084512;28;20044;-77
2021/01/09 03:18:44;;;;;;;22.97;10.60;;;0.00;98.20;;;;;;5081824;28;20044;-77
2021/01/09 03:21:10;;;;;;;102.00;22.17;;;0.00;98.20;;;;;;5083050;28;20519;-77
2021/01/09 03:23:36;;;;;;;49.07;13.20;;;0.00;98.20;;;;;;5072167;28;20039;-77
2021/01/09 03:26:03;;;;;;;59.47;16.00;;;0.10;98.30;;;;;;5085906;28;20036;-77
2021/01/09 03:28:29;;;;;;;21.67;10.87;;;0.10;98.30;;;;;;5071542;28;20039;-77
2021/01/09 03:30:56;;;;;;;26.70;11.60;;;0.10;98.30;;;;;;5067723;28;20039;-77
2021/01/09 03:33:22;;;;;;;38.67;11.50;;;0.10;98.20;;;;;;5102911;28;20051;-77
2021/01/09 03:35:49;;;;;;;23.93;13.07;;;0.00;98.20;;;;;;5102186;28;20040;-77
2021/01/09 03:38:16;;;;;;;63.80;17.90;;;0.10;98.20;;;;;;5082279;28;20055;-77
2021/01/09 03:40:42;;;;;;;43.87;14.80;;;0.00;98.20;;;;;;5067764;28;20070;-77
2021/01/09 03:43:09;;;;;;;12.97;8.50;;;0.00;98.20;;;;;;5068770;28;20036;-77
2021/01/09 03:45:35;;;;;;;22.70;10.10;;;0.00;98.30;;;;;;5072551;28;20044;-77
2021/01/09 03:48:02;;;;;;;23.17;9.93;;;0.00;98.30;;;;;;5069505;28;20046;-78
2021/01/09 03:50:28;;;;;;;21.60;10.70;;;0.00;98.30;;;;;;5067635;28;20042;-77
2021/01/09 03:52:55;;;;;;;34.47;11.20;;;0.00;98.30;;;;;;5052652;28;20050;-77
2021/01/09 03:55:22;;;;;;;20.93;10.57;;;-0.10;98.30;;;;;;5052710;28;20050;-77
2021/01/09 03:57:48;;;;;;;42.30;12.37;;;-0.10;98.30;;;;;;5086241;28;20032;-77
2021/01/09 04:00:17;;;;;;;16.00;9.57;;;-0.10;98.30;;;;;;5059654;28;20035;-78
2021/01/09 04:02:44;;;;;;;26.87;10.03;;;-0.10;98.30;;;;;;5088334;28;20035;-77
2021/01/09 04:05:11;;;;;;;66.63;22.63;;;-0.10;98.30;;;;;;5088916;28;20051;-77
2021/01/09 04:07:37;;;;;;;18.23;10.50;;;-0.10;98.30;;;;;;5089588;28;20466;-77
2021/01/09 04:10:05;;;;;;;17.53;8.47;;;-0.10;98.30;;;;;;5071224;28;20046;-77
2021/01/09 04:12:33;;;;;;;14.10;10.10;;;-0.20;98.30;;;;;;5073835;28;20040;-77
2021/01/09 04:14:59;;;;;;;11.47;7.60;;;-0.20;98.30;;;;;;5089923;28;20070;-77
2021/01/09 04:17:26;;;;;;;23.60;10.80;;;-0.30;98.30;;;;;;5072707;28;20044;-77
2021/01/09 04:19:52;;;;;;;20.70;9.33;;;-0.30;98.30;;;;;;5070984;28;20051;-77
2021/01/09 04:22:19;;;;;;;23.63;11.13;;;-0.30;98.30;;;;;;5090206;28;20043;-77
2021/01/09 04:24:45;;;;;;;51.83;14.37;;;-0.30;98.30;;;;;;5038695;28;20047;-77
2021/01/09 04:27:12;;;;;;;25.00;9.93;;;-0.30;98.30;;;;;;5070562;28;20043;-78
2021/01/09 04:29:38;;;;;;;83.97;17.53;;;-0.40;98.30;;;;;;5068686;28;20040;-77
2021/01/09 04:32:05;;;;;;;59.83;15.87;;;-0.30;98.30;;;;;;5086425;28;20492;-77
2021/01/09 04:34:31;;;;;;;21.17;11.13;;;-0.40;98.30;;;;;;5056011;28;20039;-77
2021/01/09 04:36:58;;;;;;;81.43;19.07;;;-0.40;98.30;;;;;;5072251;28;20066;-78
2021/01/09 04:39:24;;;;;;;14.57;9.97;;;-0.40;98.30;;;;;;5055171;28;20036;-78
2021/01/09 04:41:51;;;;;;;21.87;10.97;;;-0.40;98.30;;;;;;5054197;28;20042;-77
2021/01/09 04:44:18;;;;;;;21.67;10.60;;;-0.50;98.30;;;;;;5072213;28;20035;-77
2021/01/09 04:46:50;;;;;;;19.07;10.23;;;-0.50;98.30;;;;;;5071113;28;20086;-78
2021/01/09 04:49:22;;;;;;;18.20;11.80;;;-0.50;98.30;;;;;;5086950;28;20469;-78
2021/01/09 04:51:49;;;;;;;15.65;8.55;;;-0.50;98.30;;;;;;5104769;28;20036;-78
2021/01/09 04:54:18;;;;;;;12.70;8.17;;;-0.60;98.50;;;;;;5037848;28;20047;-78
2021/01/09 04:56:47;;;;;;;21.57;10.97;;;-0.60;98.30;;;;;;5076367;28;20039;-78
2021/01/09 04:59:15;;;;;;;18.60;10.50;;;-0.60;98.30;;;;;;5071143;28;20032;-78
2021/01/09 05:01:43;;;;;;;17.23;10.03;;;-0.60;98.40;;;;;;5087413;28;20039;-78
2021/01/09 05:04:10;;;;;;;16.77;11.23;;;-0.60;98.40;;;;;;5104077;28;20418;-78
2021/01/09 05:06:40;;;;;;;12.23;8.30;;;-0.60;98.40;;;;;;5088794;28;20047;-78
2021/01/09 05:09:09;;;;;;;21.10;11.80;;;-0.60;98.40;;;;;;5071695;28;20409;-78
2021/01/09 05:11:39;;;;;;;15.70;10.73;;;-0.60;98.40;;;;;;5070363;28;20027;-78
2021/01/09 05:14:06;;;;;;;12.50;8.67;;;-0.50;98.40;;;;;;5087749;28;20369;-78
2021/01/09 05:16:34;;;;;;;14.90;10.03;;;-0.60;98.40;;;;;;5105232;28;20517;-78
2021/01/09 05:19:03;;;;;;;15.60;9.93;;;-0.50;98.40;;;;;;5070749;28;20043;-78
2021/01/09 05:21:32;;;;;;;16.83;11.03;;;-0.60;98.40;;;;;;5070238;28;20032;-78
2021/01/09 05:24:09;;;;;;;16.90;11.50;;;-0.60;98.30;;;;;;5071225;28;20035;-78
2021/01/09 05:26:37;;;;;;;12.03;8.03;;;-0.60;98.40;;;;;;5089154;28;20031;-78
2021/01/09 05:29:05;;;;;;;16.50;11.13;;;-0.60;98.40;;;;;;5036943;28;20726;-82
2021/01/09 05:31:35;;;;;;;12.80;9.10;;;-0.60;98.40;;;;;;5070180;28;20028;-82
2021/01/09 05:34:03;;;;;;;14.37;10.27;;;-0.60;98.40;;;;;;5049401;28;20050;-82
2021/01/09 05:36:31;;;;;;;16.03;9.43;;;-0.60;98.40;;;;;;5088119;28;20039;-81
2021/01/09 05:38:57;;;;;;;13.90;8.77;;;-0.60;98.50;;;;;;5104563;28;20043;-81
2021/01/09 05:41:25;;;;;;;13.87;9.20;;;-0.60;98.40;;;;;;5069721;28;20028;-81
2021/01/09 05:44:06;;;;;;;17.07;9.07;;;-0.60;98.40;;;;;;5104436;28;20031;-82
2021/01/09 05:46:41;;;;;;;11.87;8.57;;;-0.60;98.40;;;;;;5070949;28;20046;-81
2021/01/09 05:49:09;;;;;;;14.87;9.40;;;-0.60;98.60;;;;;;5076439;28;20046;-81
2021/01/09 05:51:38;;;;;;;9.33;6.20;;;-0.60;98.30;;;;;;5101421;28;20051;-81
2021/01/09 05:54:05;;;;;;;15.67;9.30;;;-0.70;98.30;;;;;;5104600;28;20479;-81
2021/01/09 05:56:37;;;;;;;12.70;7.63;;;-0.70;98.30;;;;;;5089453;28;20051;-81
2021/01/09 05:59:04;;;;;;;9.77;7.10;;;-0.70;98.40;;;;;;5097394;28;20039;-81
2021/01/09 06:01:34;;;;;;;11.50;8.27;;;-0.70;98.40;;;;;;5123264;28;20040;-82
2021/01/09 06:04:05;;;;;;;11.83;8.40;;;-0.70;98.40;;;;;;5112092;28;20078;-81
2021/01/09 06:06:32;;;;;;;13.93;9.27;;;-0.70;98.40;;;;;;5111408;28;20039;-81
2021/01/09 06:09:08;;;;;;;14.03;8.07;;;-0.70;98.40;;;;;;5098431;28;20039;-81
2021/01/09 06:11:37;;;;;;;21.50;12.07;;;-0.70;98.40;;;;;;5104249;28;20042;-81
2021/01/09 06:14:06;;;;;;;16.43;10.80;;;-0.70;98.40;;;;;;5107037;28;20059;-82
2021/01/09 06:16:35;;;;;;;16.90;10.60;;;-0.60;98.50;;;;;;5072084;28;20048;-82
2021/01/09 06:19:02;;;;;;;18.83;12.43;;;-0.60;98.40;;;;;;5105435;28;20031;-82
2021/01/09 06:21:31;;;;;;;22.50;14.60;;;-0.60;98.40;;;;;;5055947;28;20059;-82
2021/01/09 06:24:00;;;;;;;19.20;10.40;;;-0.60;98.40;;;;;;5104136;28;20023;-82
2021/01/09 06:26:28;;;;;;;16.30;10.53;;;-0.50;98.50;;;;;;5087907;28;20043;-82
2021/01/09 06:29:00;;;;;;;14.87;10.17;;;-0.50;98.40;;;;;;5087004;28;20059;-82
2021/01/09 06:31:29;;;;;;;13.77;8.63;;;-0.50;98.40;;;;;;5102835;28;20039;-82
2021/01/09 06:34:00;;;;;;;13.27;10.37;;;-0.50;98.40;;;;;;5104449;28;20031;-82
2021/01/09 06:36:27;;;;;;;24.10;10.50;;;-0.40;98.40;;;;;;5087839;28;20038;-82
2021/01/09 06:38:56;;;;;;;18.57;10.90;;;-0.40;98.40;;;;;;5068914;28;20043;-82
2021/01/09 06:41:25;;;;;;;16.83;11.47;;;-0.40;98.30;;;;;;5081059;28;20023;-82
2021/01/09 06:43:53;;;;;;;16.40;10.03;;;-0.40;98.30;;;;;;5105104;28;20035;-82
2021/01/09 06:46:34;;;;;;;13.57;8.60;;;-0.40;98.20;;;;;;5101896;28;20058;-82
2021/01/09 06:49:01;;;;;;;20.27;12.00;;;-0.40;98.20;;;;;;5103631;28;20047;-82
2021/01/09 06:51:44;;;;;;;16.40;11.07;;;-0.40;98.30;;;;;;5101911;28;20047;-82
2021/01/09 06:54:20;;;;;;;16.30;10.55;;;-0.40;98.30;;;;;;5103084;28;20058;-82
2021/01/09 06:56:48;;;;;;;11.60;7.10;;;-0.40;98.30;;;;;;5084666;28;20131;-81
2021/01/09 06:59:28;;;;;;;12.23;7.53;;;-0.50;98.30;;;;;;5072439;28;20031;-82
2021/01/09 07:02:10;;;;;;;14.33;8.73;;;-0.50;98.30;;;;;;5068668;28;20043;-82
2021/01/09 07:05:00;;;;;;;23.40;8.90;;;-0.50;98.30;;;;;;5103257;28;20039;-82
2021/01/09 07:07:59;;;;;;;12.87;8.80;;;-0.50;98.30;;;;;;5085950;28;20826;-82
2021/01/09 07:10:29;;;;;;;13.20;8.77;;;-0.50;98.30;;;;;;5054057;28;20040;-82
2021/01/09 07:12:57;;;;;;;12.47;8.00;;;-0.50;98.30;;;;;;5069646;28;20048;-82
2021/01/09 07:15:26;;;;;;;11.03;7.60;;;-0.50;98.30;;;;;;5090340;27;20093;-82
2021/01/09 07:17:56;;;;;;;13.50;8.93;;;-0.50;98.40;;;;;;5073903;27;20046;-82
2021/01/09 07:20:23;;;;;;;9.97;6.37;;;-0.40;98.50;;;;;;5081340;27;20488;-82
2021/01/09 07:22:55;;;;;;;14.33;8.63;;;-0.40;98.40;;;;;;5085470;27;20039;-83
2021/01/09 07:25:31;;;;;;;12.77;8.40;;;-0.30;98.50;;;;;;5090835;27;20039;-83
2021/01/09 07:27:59;;;;;;;16.83;11.00;;;-0.20;98.40;;;;;;5106640;27;20389;-83
2021/01/09 07:30:28;;;;;;;12.47;7.83;;;-0.20;98.30;;;;;;5088757;27;20035;-83
2021/01/09 07:32:56;;;;;;;17.63;11.10;;;-0.20;98.30;;;;;;5106243;27;20043;-82
2021/01/09 07:35:30;;;;;;;13.20;9.03;;;-0.10;98.30;;;;;;5085901;27;20050;-83
2021/01/09 07:38:02;;;;;;;13.83;8.97;;;-0.10;98.20;;;;;;5058014;27;20405;-83
2021/01/09 07:40:33;;;;;;;16.23;9.68;;;-0.10;98.20;;;;;;5122798;27;20043;-83
2021/01/09 07:43:00;;;;;;;13.13;9.53;;;-0.10;98.20;;;;;;5123994;27;20371;-83
2021/01/09 07:45:32;;;;;;;13.63;8.90;;;0.00;98.20;;;;;;5073404;28;20035;-83
2021/01/09 07:47:59;;;;;;;12.27;8.15;;;0.00;98.20;;;;;;5088871;28;20046;-82
2021/01/09 07:50:41;;;;;;;15.30;9.57;;;0.00;98.20;;;;;;5088449;28;20039;-83
2021/01/09 07:53:08;;;;;;;13.30;8.15;;;0.00;98.20;;;;;;5075548;28;20043;-83
2021/01/09 07:55:45;;;;;;;12.67;7.67;;;0.00;98.20;;;;;;5073383;27;20031;-83
2021/01/09 07:58:13;;;;;;;18.27;9.97;;;0.10;98.20;;;;;;5079370;28;20399;-83
2021/01/09 08:00:42;;;;;;;25.00;14.10;;;0.10;98.20;;;;;;5085621;28;20498;-83
2021/01/09 08:03:09;;;;;;;23.30;11.73;;;0.10;98.20;;;;;;5066903;28;20035;-83
2021/01/09 08:05:37;;;;;;;15.83;9.13;;;0.20;98.30;;;;;;5064740;28;20051;-83
2021/01/09 08:08:05;;;;;;;22.67;12.00;;;0.30;98.20;;;;;;5060908;28;20397;-83
2021/01/09 08:10:35;;;;;;;22.23;10.97;;;0.40;98.20;;;;;;5071370;28;20461;-83
2021/01/09 08:13:06;;;;;;;16.90;9.77;;;0.40;98.10;;;;;;5089443;28;20444;-83
2021/01/09 08:15:37;;;;;;;19.07;10.00;;;0.50;98.10;;;;;;5077202;28;20051;-82
2021/01/09 08:18:05;;;;;;;14.73;10.10;;;0.50;98.00;;;;;;5074715;28;20051;-83
2021/01/09 08:20:32;;;;;;;14.13;9.70;;;0.60;98.00;;;;;;5087186;28;20982;-79
2021/01/09 08:23:03;;;;;;;18.57;12.17;;;0.60;98.00;;;;;;5090224;28;20414;-78
2021/01/09 08:25:36;;;;;;;24.70;13.30;;;0.60;98.00;;;;;;5088571;28;20594;-78
2021/01/09 08:28:03;;;;;;;20.95;12.75;;;0.60;98.00;;;;;;5090338;28;20069;-78
2021/01/09 08:30:32;;;;;;;24.93;14.27;;;0.70;98.10;;;;;;5086266;28;20050;-78
2021/01/09 08:33:16;;;;;;;23.07;12.47;;;0.70;98.10;;;;;;5072307;28;20473;-78
2021/01/09 08:35:49;;;;;;;27.73;12.77;;;0.80;98.00;;;;;;5087121;28;20039;-79
2021/01/09 08:38:27;;;;;;;15.33;9.33;;;0.80;98.00;;;;;;5088480;28;20577;-79
2021/01/09 08:40:58;;;;;;;16.43;10.33;;;0.90;98.00;;;;;;5101622;28;20047;-78
2021/01/09 08:43:25;;;;;;;13.27;8.60;;;0.90;98.00;;;;;;5088980;28;20039;-78
2021/01/09 08:45:53;;;;;;;19.83;10.53;;;1.00;98.00;;;;;;5062439;28;20043;-78
2021/01/09 08:48:28;;;;;;;14.63;8.40;;;1.10;98.10;;;;;;5105664;27;20042;-79
2021/01/09 08:51:07;;;;;;;20.43;10.20;;;1.20;98.10;;;;;;5074258;27;20054;-78
2021/01/09 08:53:45;;;;;;;15.90;9.47;;;1.20;98.00;;;;;;5093672;27;20532;-78
2021/01/09 08:56:13;;;;;;;20.33;10.87;;;1.30;98.00;;;;;;5075718;27;20031;-78
2021/01/09 08:58:40;;;;;;;14.33;8.97;;;1.40;98.00;;;;;;5108397;27;20050;-78
2021/01/09 09:01:10;;;;;;;12.97;7.93;;;1.50;98.00;;;;;;5058845;27;20040;-78
2021/01/09 09:03:44;;;;;;;19.23;10.73;;;1.50;97.90;;;;;;5075592;27;20035;-78
2021/01/09 09:06:14;;;;;;;14.87;8.87;;;1.50;97.90;;;;;;5125805;27;20043;-78
2021/01/09 09:08:42;;;;;;;15.97;10.90;;;1.60;98.00;;;;;;5090493;27;20402;-78
2021/01/09 09:11:09;;;;;;;14.73;10.53;;;1.60;97.90;;;;;;5106961;27;20042;-82
2021/01/09 09:13:36;;;;;;;12.50;8.10;;;1.60;97.90;;;;;;5082497;27;20045;-82
2021/01/09 09:16:20;;;;;;;9.97;6.80;;;1.60;98.20;;;;;;5073314;28;20047;-82
2021/01/09 09:18:48;;;;;;;15.90;9.53;;;1.70;97.90;;;;;;5078103;28;20467;-82
2021/01/09 09:21:18;;;;;;;15.50;9.83;;;1.70;97.90;;;;;;5087491;28;20035;-82
2021/01/09 09:23:52;;;;;;;12.80;9.30;;;1.80;97.90;;;;;;5071057;28;20039;-78
2021/01/09 09:26:19;;;;;;;15.67;9.67;;;1.70;97.90;;;;;;5087283;28;20040;-78
2021/01/09 09:28:54;;;;;;;21.07;10.73;;;1.80;97.90;;;;;;5070078;28;20047;-77
2021/01/09 09:31:32;;;;;;;15.47;10.07;;;1.80;97.90;;;;;;5087878;28;20042;-78
2021/01/09 09:34:01;;;;;;;13.53;9.20;;;1.80;97.90;;;;;;5068517;28;20067;-78
2021/01/09 09:36:29;;;;;;;11.33;7.70;;;1.70;97.90;;;;;;5105747;28;20101;-78
2021/01/09 09:38:56;;;;;;;14.53;8.93;;;1.70;97.90;;;;;;5087602;28;20031;-78
2021/01/09 09:41:22;;;;;;;13.90;9.70;;;1.60;97.90;;;;;;5087627;28;20414;-81
2021/01/09 09:43:59;;;;;;;14.17;8.97;;;1.60;97.90;;;;;;5089328;28;20059;-82
2021/01/09 09:46:26;;;;;;;14.97;10.37;;;1.50;98.00;;;;;;5056045;28;20500;-81
2021/01/09 09:48:59;;;;;;;15.87;8.87;;;1.50;98.10;;;;;;5040352;28;20380;-82
2021/01/09 09:51:33;;;;;;;11.40;8.30;;;1.40;98.10;;;;;;5088315;28;20042;-81
2021/01/09 09:54:00;;;;;;;14.17;8.50;;;1.40;98.20;;;;;;5109169;28;20051;-81
2021/01/09 09:56:33;;;;;;;17.90;10.03;;;1.40;98.20;;;;;;5088579;28;20555;-81
2021/01/09 09:59:02;;;;;;;18.00;9.17;;;1.40;98.30;;;;;;5103885;28;20032;-81
2021/01/09 10:01:32;;;;;;;60.17;10.97;;;1.50;98.40;;;;;;5069938;28;20039;-81
2021/01/09 10:04:00;;;;;;;191.80;16.00;;;1.60;98.70;;;;;;5087400;28;20038;-81
2021/01/09 10:06:34;;;;;;;11.33;6.20;;;1.90;99.00;;;;;;5106956;27;20051;-82
2021/01/09 10:09:17;;;;;;;8.50;5.70;;;2.20;99.10;;;;;;5104366;28;20043;-82
2021/01/09 10:11:45;;;;;;;7.68;4.43;;;2.40;98.90;;;;;;5104945;28;20048;-82
2021/01/09 10:14:11;;;;;;;8.83;5.40;;;2.70;98.90;;;;;;5088036;28;20051;-81
2021/01/09 10:16:38;;;;;;;6.90;5.13;;;2.90;98.70;;;;;;5087483;28;20051;-82
2021/01/09 10:19:06;;;;;;;9.73;5.13;;;3.10;98.60;;;;;;5053407;28;20040;-82
2021/01/09 10:21:33;;;;;;;10.20;5.47;;;3.20;98.10;;;;;;5086581;28;20040;-81
2021/01/09 10:24:00;;;;;;;9.73;5.07;;;3.20;97.80;;;;;;5087257;28;20043;-82
2021/01/09 10:26:34;;;;;;;10.27;5.60;;;3.20;97.90;;;;;;5087973;28;20058;-81
2021/01/09 10:29:02;;;;;;;10.10;5.20;;;3.20;97.50;;;;;;5103803;28;20071;-82
2021/01/09 10:31:37;;;;;;;10.17;4.90;;;3.00;97.30;;;;;;5083611;28;20031;-81
2021/01/09 10:34:05;;;;;;;8.87;4.90;;;2.90;97.10;;;;;;5086150;28;20480;-81
2021/01/09 10:36:34;;;;;;;8.40;5.70;;;2.80;97.10;;;;;;5087841;28;20070;-82
2021/01/09 10:39:02;;;;;;;13.00;5.33;;;2.70;97.30;;;;;;5084261;28;20040;-82
2021/01/09 10:41:28;;;;;;;7.20;4.90;;;2.70;97.80;;;;;;5087674;28;20059;-83
2021/01/09 10:43:55;;;;;;;8.23;4.30;;;2.90;98.20;;;;;;5071963;28;20525;-80
2021/01/09 10:46:28;;;;;;;8.60;4.70;;;3.10;98.40;;;;;;5080952;28;20040;-81
2021/01/09 10:48:56;;;;;;;8.80;4.32;;;3.40;98.40;;;;;;5066609;28;20036;-76
2021/01/09 10:51:24;;;;;;;8.93;4.20;;;3.70;98.40;;;;;;5069799;28;20398;-77
2021/01/09 10:53:54;;;;;;;8.02;4.40;;;3.90;97.90;;;;;;5067632;28;20036;-77
2021/01/09 10:56:20;;;;;;;8.98;4.45;;;3.90;97.70;;;;;;5069250;28;20517;-77
2021/01/09 10:58:47;;;;;;;7.25;4.10;;;3.90;97.60;;;;;;5082531;28;20048;-77
2021/01/09 11:01:14;;;;;;;6.43;3.17;;;3.90;97.50;;;;;;5081473;28;20051;-77
2021/01/09 11:03:42;;;;;;;7.40;3.47;;;3.80;97.40;;;;;;5085831;28;20036;-77
2021/01/09 11:06:10;;;;;;;7.03;3.80;;;3.70;97.40;;;;;;5072167;28;20050;-77
2021/01/09 11:08:37;;;;;;;9.75;4.55;;;3.70;97.40;;;;;;5068876;28;20056;-77
2021/01/09 11:11:03;;;;;;;9.77;4.97;;;3.70;97.50;;;;;;5065136;28;20039;-77
2021/01/09 11:13:31;;;;;;;7.53;4.03;;;3.80;97.50;;;;;;5084693;28;20985;-77
2021/01/09 11:15:57;;;;;;;8.73;4.22;;;3.80;97.50;;;;;;5059123;27;20044;-77
2021/01/09 11:18:24;;;;;;;8.77;4.70;;;3.90;97.40;;;;;;5072368;27;20051;-77
2021/01/09 11:20:51;;;;;;;7.07;4.10;;;3.90;97.30;;;;;;5073830;27;20047;-77
2021/01/09 11:23:19;;;;;;;6.87;3.70;;;3.80;97.20;;;;;;5049025;27;20042;-77
2021/01/09 11:25:47;;;;;;;6.13;3.03;;;3.70;97.30;;;;;;5073788;27;20040;-77
2021/01/09 11:28:15;;;;;;;9.13;3.40;;;3.70;97.50;;;;;;5085794;27;20026;-78
2021/01/09 11:30:44;;;;;;;7.67;3.90;;;3.60;97.60;;;;;;5067369;27;20046;-78
2021/01/09 11:33:11;;;;;;;8.23;4.80;;;3.60;97.70;;;;;;5084506;27;20039;-77
2021/01/09 11:35:38;;;;;;;11.57;4.63;;;3.70;97.80;;;;;;5072668;27;20038;-77
2021/01/09 11:38:05;;;;;;;7.93;3.07;;;3.70;97.90;;;;;;5101591;27;20062;-77
2021/01/09 11:40:31;;;;;;;9.70;3.10;;;3.80;98.00;;;;;;5087065;27;20035;-77
2021/01/09 11:42:58;;;;;;;10.03;3.13;;;4.00;98.00;;;;;;5073826;27;20040;-78
2021/01/09 11:45:25;;;;;;;4.17;2.10;;;4.10;97.90;;;;;;5089300;27;20042;-77
2021/01/09 11:47:52;;;;;;;7.40;2.00;;;4.20;97.90;;;;;;5082745;27;20046;-77
2021/01/09 11:50:18;;;;;;;8.90;2.17;;;4.40;97.80;;;;;;5082290;27;20047;-77
2021/01/09 11:52:48;;;;;;;6.67;2.50;;;4.40;97.70;;;;;;5070040;28;20047;-77
2021/01/09 11:55:14;;;;;;;8.70;2.00;;;4.40;97.40;;;;;;5051457;28;20054;-81
2021/01/09 11:57:41;;;;;;;6.43;2.17;;;4.40;97.30;;;;;;5089160;28;20053;-82
2021/01/09 12:00:10;;;;;;;6.10;2.30;;;4.30;97.30;;;;;;5066322;28;20027;-82
2021/01/09 12:02:38;;;;;;;6.20;1.90;;;4.20;97.30;;;;;;5084100;28;20042;-82
2021/01/09 12:05:09;;;;;;;7.33;2.00;;;4.20;97.40;;;;;;5083632;28;20050;-83
2021/01/09 12:07:35;;;;;;;5.30;1.97;;;4.20;97.40;;;;;;5088218;28;20043;-83
2021/01/09 12:10:04;;;;;;;7.57;2.17;;;4.10;97.40;;;;;;5103909;28;20039;-82
2021/01/09 12:12:31;;;;;;;8.50;2.63;;;4.10;97.40;;;;;;5100578;28;20049;-82
2021/01/09 12:14:58;;;;;;;4.70;1.40;;;4.10;97.40;;;;;;5071587;28;20043;-82
2021/01/09 12:17:25;;;;;;;9.00;2.53;;;4.10;97.30;;;;;;5091863;28;20051;-82
2021/01/09 12:19:52;;;;;;;5.67;2.20;;;4.10;97.30;;;;;;5088774;28;20031;-82
2021/01/09 12:22:19;;;;;;;6.03;1.80;;;4.10;97.20;;;;;;5102250;28;20434;-81
2021/01/09 12:24:46;;;;;;;7.57;2.00;;;4.10;97.10;;;;;;5044796;27;20068;-81
2021/01/09 12:27:14;;;;;;;8.50;1.67;;;4.10;97.10;;;;;;5093015;27;20490;-81
2021/01/09 12:29:40;;;;;;;7.63;1.83;;;4.10;97.10;;;;;;5052186;27;20035;-82
2021/01/09 12:32:07;;;;;;;2.87;1.30;;;4.10;97.10;;;;;;5092455;27;20043;-81
2021/01/09 12:34:33;;;;;;;8.98;2.30;;;4.10;97.10;;;;;;5073384;27;20051;-81
2021/01/09 12:37:00;;;;;;;9.27;2.00;;;4.10;97.10;;;;;;5089936;28;20075;-81
2021/01/09 12:39:26;;;;;;;10.73;3.10;;;4.20;97.10;;;;;;5068911;27;20054;-77
2021/01/09 12:41:53;;;;;;;7.70;2.07;;;4.20;97.10;;;;;;5106720;27;20039;-77
2021/01/09 12:44:20;;;;;;;7.57;2.60;;;4.30;97.10;;;;;;5076006;27;20035;-77
2021/01/09 12:46:48;;;;;;;8.33;2.70;;;4.50;97.00;;;;;;5060025;27;20039;-77
2021/01/09 12:49:20;;;;;;;7.37;2.20;;;4.60;96.80;;;;;;5072731;27;20043;-77